sensor_id;sensor_type;location;lat;lon;timestamp;P1;durP1;ratioP1;P2;durP2;ratioP2
64982;SDS011;69426;28.138;-15.436;2023-07-13T00:00:00;1.27;;;1.00;;
64982;SDS011;69426;28.138;-15.436;2023-07-13T00:02:25;3.22;;;1.38;;
64982;SDS011;69426;28.138;-15.436;2023-07-13T00:04:52;6.57;;;1.10;;
64982;SDS011;69426;28.138;-15.436;2023-07-13T00:07:17;7.77;;;1.50;;
64982;SDS011;69426;28.138;-15.436;2023-07-13T00:09:45;3.15;;;1.30;;
64982;SDS011;69426;28.138;-15.436;2023-07-13T00:12:21;1.30;;;1.00;;
64982;SDS011;69426;28.138;-15.436;2023-07-13T00:14:46;2.05;;;1.00;;
64982;SDS011;69426;28.138;-15.436;2023-07-13T00:17:11;4.00;;;0.80;;
64982;SDS011;69426;28.138;-15.436;2023-07-13T00:19:38;1.10;;;0.82;;
64982;SDS011;69426;28.138;-15.436;2023-07-13T00:22:03;3.87;;;0.83;;
64982;SDS011;69426;28.138;-15.436;2023-07-13T00:24:28;1.35;;;0.90;;
64982;SDS011;69426;28.138;-15.436;2023-07-13T00:26:54;5.43;;;0.80;;
64982;SDS011;69426;28.138;-15.436;2023-07-13T00:29:19;1.20;;;0.90;;
64982;SDS011;69426;28.138;-15.436;2023-07-13T00:31:46;1.00;;;0.80;;
64982;SDS011;69426;28.138;-15.436;2023-07-13T00:34:11;1.17;;;0.83;;
64982;SDS011;69426;28.138;-15.436;2023-07-13T00:36:36;1.63;;;0.90;;
64982;SDS011;69426;28.138;-15.436;2023-07-13T00:39:02;1.00;;;0.73;;
64982;SDS011;69426;28.138;-15.436;2023-07-13T00:41:28;2.60;;;1.20;;
64982;SDS011;69426;28.138;-15.436;2023-07-13T00:43:54;1.53;;;1.10;;
64982;SDS011;69426;28.138;-15.436;2023-07-13T00:46:23;1.63;;;1.10;;
64982;SDS011;69426;28.138;-15.436;2023-07-13T00:48:50;2.45;;;0.90;;
64982;SDS011;69426;28.138;-15.436;2023-07-13T00:51:16;6.75;;;0.95;;
64982;SDS011;69426;28.138;-15.436;2023-07-13T00:53:43;3.08;;;0.90;;
64982;SDS011;69426;28.138;-15.436;2023-07-13T00:56:09;1.00;;;0.80;;
64982;SDS011;69426;28.138;-15.436;2023-07-13T00:58:34;1.25;;;0.70;;
64982;SDS011;69426;28.138;-15.436;2023-07-13T01:01:00;1.17;;;0.80;;
64982;SDS011;69426;28.138;-15.436;2023-07-13T01:03:25;2.08;;;1.10;;
64982;SDS011;69426;28.138;-15.436;2023-07-13T01:05:51;1.63;;;0.73;;
64982;SDS011;69426;28.138;-15.436;2023-07-13T01:08:18;0.95;;;0.80;;
64982;SDS011;69426;28.138;-15.436;2023-07-13T01:10:51;3.05;;;1.10;;
64982;SDS011;69426;28.138;-15.436;2023-07-13T01:15:43;1.75;;;0.90;;
64982;SDS011;69426;28.138;-15.436;2023-07-13T01:18:19;2.53;;;0.80;;
64982;SDS011;69426;28.138;-15.436;2023-07-13T01:20:49;5.90;;;0.70;;
64982;SDS011;69426;28.138;-15.436;2023-07-13T01:23:15;4.25;;;0.80;;
64982;SDS011;69426;28.138;-15.436;2023-07-13T01:25:40;1.20;;;0.90;;
64982;SDS011;69426;28.138;-15.436;2023-07-13T01:28:06;1.47;;;0.90;;
64982;SDS011;69426;28.138;-15.436;2023-07-13T01:30:33;1.60;;;0.80;;
64982;SDS011;69426;28.138;-15.436;2023-07-13T01:32:58;1.40;;;0.90;;
64982;SDS011;69426;28.138;-15.436;2023-07-13T01:35:24;2.60;;;0.80;;
64982;SDS011;69426;28.138;-15.436;2023-07-13T01:37:50;1.60;;;0.90;;
64982;SDS011;69426;28.138;-15.436;2023-07-13T01:40:15;1.58;;;0.90;;
64982;SDS011;69426;28.138;-15.436;2023-07-13T01:42:41;1.65;;;0.90;;
64982;SDS011;69426;28.138;-15.436;2023-07-13T01:45:06;1.73;;;0.90;;
64982;SDS011;69426;28.138;-15.436;2023-07-13T01:47:31;1.45;;;0.80;;
64982;SDS011;69426;28.138;-15.436;2023-07-13T01:49:57;2.20;;;1.00;;
64982;SDS011;69426;28.138;-15.436;2023-07-13T01:52:22;2.70;;;1.10;;
64982;SDS011;69426;28.138;-15.436;2023-07-13T01:54:48;3.78;;;1.15;;
64982;SDS011;69426;28.138;-15.436;2023-07-13T01:57:14;1.17;;;0.90;;
64982;SDS011;69426;28.138;-15.436;2023-07-13T01:59:39;1.00;;;0.80;;
64982;SDS011;69426;28.138;-15.436;2023-07-13T02:02:04;1.48;;;0.90;;
64982;SDS011;69426;28.138;-15.436;2023-07-13T02:04:29;1.10;;;0.90;;
64982;SDS011;69426;28.138;-15.436;2023-07-13T02:06:55;2.07;;;1.00;;
64982;SDS011;69426;28.138;-15.436;2023-07-13T02:09:20;2.67;;;0.90;;
64982;SDS011;69426;28.138;-15.436;2023-07-13T02:11:45;3.83;;;1.13;;
64982;SDS011;69426;28.138;-15.436;2023-07-13T02:14:11;2.07;;;0.90;;
64982;SDS011;69426;28.138;-15.436;2023-07-13T02:16:36;0.90;;;0.80;;
64982;SDS011;69426;28.138;-15.436;2023-07-13T02:19:01;3.33;;;1.10;;
64982;SDS011;69426;28.138;-15.436;2023-07-13T02:21:27;2.08;;;0.90;;
64982;SDS011;69426;28.138;-15.436;2023-07-13T02:23:52;3.72;;;0.80;;
64982;SDS011;69426;28.138;-15.436;2023-07-13T02:26:18;2.60;;;0.75;;
64982;SDS011;69426;28.138;-15.436;2023-07-13T02:28:43;6.40;;;0.90;;
64982;SDS011;69426;28.138;-15.436;2023-07-13T02:31:10;1.10;;;0.70;;
64982;SDS011;69426;28.138;-15.436;2023-07-13T02:33:36;0.70;;;0.70;;
64982;SDS011;69426;28.138;-15.436;2023-07-13T02:36:01;1.48;;;0.80;;
64982;SDS011;69426;28.138;-15.436;2023-07-13T02:38:27;3.45;;;1.42;;
64982;SDS011;69426;28.138;-15.436;2023-07-13T02:40:52;1.15;;;0.70;;
64982;SDS011;69426;28.138;-15.436;2023-07-13T02:43:17;1.05;;;0.80;;
64982;SDS011;69426;28.138;-15.436;2023-07-13T02:45:43;7.40;;;0.90;;
64982;SDS011;69426;28.138;-15.436;2023-07-13T02:48:08;5.28;;;1.13;;
64982;SDS011;69426;28.138;-15.436;2023-07-13T02:50:34;3.60;;;1.30;;
64982;SDS011;69426;28.138;-15.436;2023-07-13T02:52:59;1.60;;;1.30;;
64982;SDS011;69426;28.138;-15.436;2023-07-13T02:55:24;2.20;;;1.10;;
64982;SDS011;69426;28.138;-15.436;2023-07-13T02:57:49;1.33;;;1.07;;
64982;SDS011;69426;28.138;-15.436;2023-07-13T03:00:15;2.03;;;1.40;;
64982;SDS011;69426;28.138;-15.436;2023-07-13T03:02:41;3.30;;;1.15;;
64982;SDS011;69426;28.138;-15.436;2023-07-13T03:05:06;2.33;;;1.10;;
64982;SDS011;69426;28.138;-15.436;2023-07-13T03:07:32;1.58;;;0.90;;
64982;SDS011;69426;28.138;-15.436;2023-07-13T03:09:58;1.90;;;1.05;;
64982;SDS011;69426;28.138;-15.436;2023-07-13T03:12:23;5.10;;;1.20;;
64982;SDS011;69426;28.138;-15.436;2023-07-13T03:14:48;6.05;;;1.75;;
64982;SDS011;69426;28.138;-15.436;2023-07-13T03:17:14;3.57;;;1.60;;
64982;SDS011;69426;28.138;-15.436;2023-07-13T03:19:39;2.13;;;1.30;;
64982;SDS011;69426;28.138;-15.436;2023-07-13T03:22:04;1.67;;;1.40;;
64982;SDS011;69426;28.138;-15.436;2023-07-13T03:24:30;2.30;;;1.30;;
64982;SDS011;69426;28.138;-15.436;2023-07-13T03:26:57;1.48;;;1.17;;
64982;SDS011;69426;28.138;-15.436;2023-07-13T03:29:22;1.47;;;1.03;;
64982;SDS011;69426;28.138;-15.436;2023-07-13T03:31:47;1.37;;;0.90;;
64982;SDS011;69426;28.138;-15.436;2023-07-13T03:34:12;1.03;;;0.93;;
64982;SDS011;69426;28.138;-15.436;2023-07-13T03:36:38;2.20;;;1.13;;
64982;SDS011;69426;28.138;-15.436;2023-07-13T03:39:03;1.17;;;1.00;;
64982;SDS011;69426;28.138;-15.436;2023-07-13T03:41:28;1.45;;;1.08;;
64982;SDS011;69426;28.138;-15.436;2023-07-13T03:43:54;1.38;;;0.90;;
64982;SDS011;69426;28.138;-15.436;2023-07-13T03:46:19;1.52;;;1.15;;
64982;SDS011;69426;28.138;-15.436;2023-07-13T03:48:45;1.90;;;1.17;;
64982;SDS011;69426;28.138;-15.436;2023-07-13T03:51:11;3.00;;;1.20;;
64982;SDS011;69426;28.138;-15.436;2023-07-13T03:53:38;4.47;;;1.23;;
64982;SDS011;69426;28.138;-15.436;2023-07-13T03:56:04;1.35;;;1.10;;
64982;SDS011;69426;28.138;-15.436;2023-07-13T03:58:31;3.33;;;1.23;;
64982;SDS011;69426;28.138;-15.436;2023-07-13T04:00:56;3.58;;;1.30;;
64982;SDS011;69426;28.138;-15.436;2023-07-13T04:03:22;3.70;;;1.40;;
64982;SDS011;69426;28.138;-15.436;2023-07-13T04:05:47;1.92;;;1.30;;
64982;SDS011;69426;28.138;-15.436;2023-07-13T04:08:13;1.50;;;1.17;;
64982;SDS011;69426;28.138;-15.436;2023-07-13T04:10:38;3.05;;;1.15;;
64982;SDS011;69426;28.138;-15.436;2023-07-13T04:13:04;2.22;;;1.15;;
64982;SDS011;69426;28.138;-15.436;2023-07-13T04:15:30;1.50;;;0.90;;
64982;SDS011;69426;28.138;-15.436;2023-07-13T04:17:55;1.63;;;1.10;;
64982;SDS011;69426;28.138;-15.436;2023-07-13T04:20:20;1.40;;;1.10;;
64982;SDS011;69426;28.138;-15.436;2023-07-13T04:22:46;1.88;;;1.00;;
64982;SDS011;69426;28.138;-15.436;2023-07-13T04:25:12;1.33;;;1.10;;
64982;SDS011;69426;28.138;-15.436;2023-07-13T04:27:37;1.58;;;1.27;;
64982;SDS011;69426;28.138;-15.436;2023-07-13T04:30:04;1.95;;;1.42;;
64982;SDS011;69426;28.138;-15.436;2023-07-13T04:32:34;1.85;;;1.30;;
64982;SDS011;69426;28.138;-15.436;2023-07-13T04:35:00;1.98;;;1.25;;
64982;SDS011;69426;28.138;-15.436;2023-07-13T04:37:25;1.83;;;1.37;;
64982;SDS011;69426;28.138;-15.436;2023-07-13T04:39:51;1.88;;;1.52;;
64982;SDS011;69426;28.138;-15.436;2023-07-13T04:42:16;2.08;;;1.60;;
64982;SDS011;69426;28.138;-15.436;2023-07-13T04:44:42;2.08;;;1.58;;
64982;SDS011;69426;28.138;-15.436;2023-07-13T04:47:07;2.40;;;1.50;;
64982;SDS011;69426;28.138;-15.436;2023-07-13T04:49:32;2.80;;;2.13;;
64982;SDS011;69426;28.138;-15.436;2023-07-13T04:51:58;3.13;;;2.10;;
64982;SDS011;69426;28.138;-15.436;2023-07-13T04:54:23;3.53;;;2.20;;
64982;SDS011;69426;28.138;-15.436;2023-07-13T04:56:48;2.33;;;1.97;;
64982;SDS011;69426;28.138;-15.436;2023-07-13T04:59:13;2.60;;;1.70;;
64982;SDS011;69426;28.138;-15.436;2023-07-13T05:01:39;3.78;;;1.85;;
64982;SDS011;69426;28.138;-15.436;2023-07-13T05:04:05;2.22;;;1.70;;
64982;SDS011;69426;28.138;-15.436;2023-07-13T05:06:30;3.60;;;2.10;;
64982;SDS011;69426;28.138;-15.436;2023-07-13T05:08:56;2.50;;;1.70;;
64982;SDS011;69426;28.138;-15.436;2023-07-13T05:11:21;3.90;;;2.00;;
64982;SDS011;69426;28.138;-15.436;2023-07-13T05:13:47;5.63;;;2.08;;
64982;SDS011;69426;28.138;-15.436;2023-07-13T05:16:12;2.97;;;2.23;;
64982;SDS011;69426;28.138;-15.436;2023-07-13T05:18:37;5.17;;;1.90;;
64982;SDS011;69426;28.138;-15.436;2023-07-13T05:21:04;2.30;;;1.83;;
64982;SDS011;69426;28.138;-15.436;2023-07-13T05:23:31;5.20;;;2.65;;
64982;SDS011;69426;28.138;-15.436;2023-07-13T05:25:56;2.83;;;1.98;;
64982;SDS011;69426;28.138;-15.436;2023-07-13T05:28:22;5.80;;;2.60;;
64982;SDS011;69426;28.138;-15.436;2023-07-13T05:30:47;3.63;;;2.80;;
64982;SDS011;69426;28.138;-15.436;2023-07-13T05:33:13;2.50;;;1.75;;
64982;SDS011;69426;28.138;-15.436;2023-07-13T05:35:38;3.70;;;1.90;;
64982;SDS011;69426;28.138;-15.436;2023-07-13T05:38:04;2.40;;;1.70;;
64982;SDS011;69426;28.138;-15.436;2023-07-13T05:40:29;4.30;;;2.00;;
64982;SDS011;69426;28.138;-15.436;2023-07-13T05:42:54;2.57;;;1.90;;
64982;SDS011;69426;28.138;-15.436;2023-07-13T05:45:19;8.53;;;3.97;;
64982;SDS011;69426;28.138;-15.436;2023-07-13T05:47:45;3.10;;;2.00;;
64982;SDS011;69426;28.138;-15.436;2023-07-13T05:50:10;2.73;;;1.90;;
64982;SDS011;69426;28.138;-15.436;2023-07-13T05:52:35;2.07;;;1.70;;
64982;SDS011;69426;28.138;-15.436;2023-07-13T05:55:00;1.60;;;1.30;;
64982;SDS011;69426;28.138;-15.436;2023-07-13T05:57:26;2.17;;;1.20;;
64982;SDS011;69426;28.138;-15.436;2023-07-13T05:59:51;1.30;;;0.97;;
64982;SDS011;69426;28.138;-15.436;2023-07-13T06:02:16;1.00;;;0.80;;
64982;SDS011;69426;28.138;-15.436;2023-07-13T06:04:41;1.10;;;0.87;;
64982;SDS011;69426;28.138;-15.436;2023-07-13T06:07:06;1.00;;;0.80;;
64982;SDS011;69426;28.138;-15.436;2023-07-13T06:09:32;1.10;;;0.70;;
64982;SDS011;69426;28.138;-15.436;2023-07-13T06:11:57;1.10;;;0.70;;
64982;SDS011;69426;28.138;-15.436;2023-07-13T06:14:22;1.07;;;0.70;;
64982;SDS011;69426;28.138;-15.436;2023-07-13T06:16:47;0.93;;;0.83;;
64982;SDS011;69426;28.138;-15.436;2023-07-13T06:19:13;1.63;;;1.00;;
64982;SDS011;69426;28.138;-15.436;2023-07-13T06:21:38;4.20;;;2.43;;
64982;SDS011;69426;28.138;-15.436;2023-07-13T06:24:03;2.70;;;2.17;;
64982;SDS011;69426;28.138;-15.436;2023-07-13T06:26:28;3.22;;;1.95;;
64982;SDS011;69426;28.138;-15.436;2023-07-13T06:28:54;3.47;;;2.60;;
64982;SDS011;69426;28.138;-15.436;2023-07-13T06:31:19;3.10;;;2.23;;
64982;SDS011;69426;28.138;-15.436;2023-07-13T06:33:45;3.53;;;2.40;;
64982;SDS011;69426;28.138;-15.436;2023-07-13T06:36:10;4.53;;;1.95;;
64982;SDS011;69426;28.138;-15.436;2023-07-13T06:38:36;1.85;;;1.60;;
64982;SDS011;69426;28.138;-15.436;2023-07-13T06:41:01;2.08;;;1.48;;
64982;SDS011;69426;28.138;-15.436;2023-07-13T06:43:26;2.35;;;1.30;;
64982;SDS011;69426;28.138;-15.436;2023-07-13T06:45:54;2.90;;;1.63;;
64982;SDS011;69426;28.138;-15.436;2023-07-13T06:48:19;3.30;;;2.67;;
64982;SDS011;69426;28.138;-15.436;2023-07-13T06:50:45;6.75;;;3.00;;
64982;SDS011;69426;28.138;-15.436;2023-07-13T06:53:11;4.50;;;3.00;;
64982;SDS011;69426;28.138;-15.436;2023-07-13T06:55:37;4.35;;;2.90;;
64982;SDS011;69426;28.138;-15.436;2023-07-13T06:58:02;3.85;;;2.00;;
64982;SDS011;69426;28.138;-15.436;2023-07-13T07:00:28;2.47;;;1.70;;
64982;SDS011;69426;28.138;-15.436;2023-07-13T07:02:53;2.00;;;1.52;;
64982;SDS011;69426;28.138;-15.436;2023-07-13T07:05:40;2.40;;;1.20;;
64982;SDS011;69426;28.138;-15.436;2023-07-13T07:08:05;2.55;;;1.17;;
64982;SDS011;69426;28.138;-15.436;2023-07-13T07:10:31;1.10;;;1.00;;
64982;SDS011;69426;28.138;-15.436;2023-07-13T07:12:57;1.20;;;1.00;;
64982;SDS011;69426;28.138;-15.436;2023-07-13T07:15:22;2.03;;;1.35;;
64982;SDS011;69426;28.138;-15.436;2023-07-13T07:17:47;2.97;;;1.20;;
64982;SDS011;69426;28.138;-15.436;2023-07-13T07:20:13;2.30;;;1.30;;
64982;SDS011;69426;28.138;-15.436;2023-07-13T07:22:38;3.15;;;1.10;;
64982;SDS011;69426;28.138;-15.436;2023-07-13T07:25:04;1.35;;;0.98;;
64982;SDS011;69426;28.138;-15.436;2023-07-13T07:27:29;1.45;;;0.90;;
64982;SDS011;69426;28.138;-15.436;2023-07-13T07:29:54;1.10;;;0.80;;
64982;SDS011;69426;28.138;-15.436;2023-07-13T07:32:19;1.98;;;1.45;;
64982;SDS011;69426;28.138;-15.436;2023-07-13T07:34:46;3.85;;;1.80;;
64982;SDS011;69426;28.138;-15.436;2023-07-13T07:37:13;2.08;;;1.60;;
64982;SDS011;69426;28.138;-15.436;2023-07-13T07:39:39;4.10;;;1.90;;
64982;SDS011;69426;28.138;-15.436;2023-07-13T07:42:05;3.13;;;1.98;;
64982;SDS011;69426;28.138;-15.436;2023-07-13T07:44:31;3.30;;;1.90;;
64982;SDS011;69426;28.138;-15.436;2023-07-13T07:46:56;5.55;;;1.80;;
64982;SDS011;69426;28.138;-15.436;2023-07-13T07:49:21;2.97;;;2.10;;
64982;SDS011;69426;28.138;-15.436;2023-07-13T07:51:47;3.47;;;2.15;;
64982;SDS011;69426;28.138;-15.436;2023-07-13T07:54:12;4.45;;;2.08;;
64982;SDS011;69426;28.138;-15.436;2023-07-13T07:56:38;3.25;;;2.05;;
64982;SDS011;69426;28.138;-15.436;2023-07-13T07:59:03;5.00;;;2.10;;
64982;SDS011;69426;28.138;-15.436;2023-07-13T08:01:28;7.03;;;2.40;;
64982;SDS011;69426;28.138;-15.436;2023-07-13T08:03:53;2.87;;;2.03;;
64982;SDS011;69426;28.138;-15.436;2023-07-13T08:06:19;6.83;;;2.20;;
64982;SDS011;69426;28.138;-15.436;2023-07-13T08:08:45;4.85;;;2.30;;
64982;SDS011;69426;28.138;-15.436;2023-07-13T08:11:10;3.08;;;2.10;;
64982;SDS011;69426;28.138;-15.436;2023-07-13T08:13:36;2.58;;;2.00;;
64982;SDS011;69426;28.138;-15.436;2023-07-13T08:16:03;3.80;;;2.00;;
64982;SDS011;69426;28.138;-15.436;2023-07-13T08:18:29;3.97;;;2.13;;
64982;SDS011;69426;28.138;-15.436;2023-07-13T08:20:54;4.77;;;2.20;;
64982;SDS011;69426;28.138;-15.436;2023-07-13T08:23:23;3.38;;;1.95;;
64982;SDS011;69426;28.138;-15.436;2023-07-13T08:25:52;7.43;;;2.03;;
64982;SDS011;69426;28.138;-15.436;2023-07-13T08:28:19;3.75;;;2.03;;
64982;SDS011;69426;28.138;-15.436;2023-07-13T08:30:44;3.75;;;2.00;;
64982;SDS011;69426;28.138;-15.436;2023-07-13T08:33:09;5.43;;;2.10;;
64982;SDS011;69426;28.138;-15.436;2023-07-13T08:35:34;4.07;;;2.00;;
64982;SDS011;69426;28.138;-15.436;2023-07-13T08:37:59;3.70;;;2.33;;
64982;SDS011;69426;28.138;-15.436;2023-07-13T08:40:25;9.30;;;2.30;;
64982;SDS011;69426;28.138;-15.436;2023-07-13T08:42:53;4.95;;;2.22;;
64982;SDS011;69426;28.138;-15.436;2023-07-13T08:45:20;5.55;;;1.95;;
64982;SDS011;69426;28.138;-15.436;2023-07-13T08:47:52;3.90;;;2.00;;
64982;SDS011;69426;28.138;-15.436;2023-07-13T08:50:19;4.43;;;2.10;;
64982;SDS011;69426;28.138;-15.436;2023-07-13T08:52:45;3.15;;;1.98;;
64982;SDS011;69426;28.138;-15.436;2023-07-13T08:55:17;3.78;;;2.30;;
64982;SDS011;69426;28.138;-15.436;2023-07-13T08:57:44;4.50;;;2.08;;
64982;SDS011;69426;28.138;-15.436;2023-07-13T09:00:11;6.13;;;1.95;;
64982;SDS011;69426;28.138;-15.436;2023-07-13T09:02:49;4.40;;;2.20;;
64982;SDS011;69426;28.138;-15.436;2023-07-13T09:05:25;3.33;;;2.05;;
64982;SDS011;69426;28.138;-15.436;2023-07-13T09:10:32;5.00;;;2.13;;
64982;SDS011;69426;28.138;-15.436;2023-07-13T09:15:34;4.18;;;2.25;;
64982;SDS011;69426;28.138;-15.436;2023-07-13T09:18:02;2.70;;;2.05;;
64982;SDS011;69426;28.138;-15.436;2023-07-13T09:20:34;4.93;;;2.10;;
64982;SDS011;69426;28.138;-15.436;2023-07-13T09:23:00;3.17;;;2.13;;
64982;SDS011;69426;28.138;-15.436;2023-07-13T09:27:53;5.13;;;2.50;;
64982;SDS011;69426;28.138;-15.436;2023-07-13T09:32:51;3.13;;;1.98;;
64982;SDS011;69426;28.138;-15.436;2023-07-13T09:35:19;3.88;;;2.20;;
64982;SDS011;69426;28.138;-15.436;2023-07-13T09:37:45;3.92;;;2.10;;
64982;SDS011;69426;28.138;-15.436;2023-07-13T09:40:13;4.15;;;2.28;;
64982;SDS011;69426;28.138;-15.436;2023-07-13T09:42:42;3.50;;;2.13;;
64982;SDS011;69426;28.138;-15.436;2023-07-13T09:45:07;2.72;;;2.10;;
64982;SDS011;69426;28.138;-15.436;2023-07-13T09:47:38;4.45;;;2.20;;
64982;SDS011;69426;28.138;-15.436;2023-07-13T09:50:08;2.60;;;2.00;;
64982;SDS011;69426;28.138;-15.436;2023-07-13T09:52:40;4.57;;;2.28;;
64982;SDS011;69426;28.138;-15.436;2023-07-13T09:55:15;4.05;;;2.03;;
64982;SDS011;69426;28.138;-15.436;2023-07-13T09:57:47;4.72;;;2.03;;
64982;SDS011;69426;28.138;-15.436;2023-07-13T10:00:19;2.97;;;1.95;;
64982;SDS011;69426;28.138;-15.436;2023-07-13T10:02:45;3.53;;;2.00;;
64982;SDS011;69426;28.138;-15.436;2023-07-13T10:05:11;3.27;;;2.10;;
64982;SDS011;69426;28.138;-15.436;2023-07-13T10:07:39;3.10;;;1.90;;
64982;SDS011;69426;28.138;-15.436;2023-07-13T10:10:12;2.70;;;1.98;;
64982;SDS011;69426;28.138;-15.436;2023-07-13T10:12:38;3.67;;;2.00;;
64982;SDS011;69426;28.138;-15.436;2023-07-13T10:15:04;2.85;;;1.90;;
64982;SDS011;69426;28.138;-15.436;2023-07-13T10:17:34;3.72;;;1.90;;
64982;SDS011;69426;28.138;-15.436;2023-07-13T10:20:02;3.03;;;1.85;;
64982;SDS011;69426;28.138;-15.436;2023-07-13T10:25:15;4.88;;;1.65;;
64982;SDS011;69426;28.138;-15.436;2023-07-13T10:27:41;2.85;;;1.80;;
64982;SDS011;69426;28.138;-15.436;2023-07-13T10:30:19;4.13;;;2.00;;
64982;SDS011;69426;28.138;-15.436;2023-07-13T10:32:45;3.75;;;1.92;;
64982;SDS011;69426;28.138;-15.436;2023-07-13T10:35:11;4.20;;;1.70;;
64982;SDS011;69426;28.138;-15.436;2023-07-13T10:40:39;3.40;;;1.90;;
64982;SDS011;69426;28.138;-15.436;2023-07-13T10:43:28;2.85;;;1.80;;
64982;SDS011;69426;28.138;-15.436;2023-07-13T10:45:52;3.97;;;1.98;;
64982;SDS011;69426;28.138;-15.436;2023-07-13T10:48:19;4.40;;;1.70;;
64982;SDS011;69426;28.138;-15.436;2023-07-13T10:50:46;5.97;;;1.88;;
64982;SDS011;69426;28.138;-15.436;2023-07-13T10:53:29;3.60;;;1.80;;
64982;SDS011;69426;28.138;-15.436;2023-07-13T10:58:32;4.10;;;1.73;;
64982;SDS011;69426;28.138;-15.436;2023-07-13T11:01:08;2.97;;;1.70;;
64982;SDS011;69426;28.138;-15.436;2023-07-13T11:03:34;2.50;;;1.70;;
64982;SDS011;69426;28.138;-15.436;2023-07-13T11:06:15;4.85;;;1.63;;
64982;SDS011;69426;28.138;-15.436;2023-07-13T11:16:13;4.90;;;1.80;;
64982;SDS011;69426;28.138;-15.436;2023-07-13T11:18:39;3.35;;;1.55;;
64982;SDS011;69426;28.138;-15.436;2023-07-13T11:21:23;3.30;;;1.73;;
64982;SDS011;69426;28.138;-15.436;2023-07-13T11:23:52;4.22;;;1.63;;
64982;SDS011;69426;28.138;-15.436;2023-07-13T11:29:07;4.45;;;1.58;;
64982;SDS011;69426;28.138;-15.436;2023-07-13T11:31:33;4.18;;;1.58;;
64982;SDS011;69426;28.138;-15.436;2023-07-13T11:34:02;4.85;;;1.60;;
64982;SDS011;69426;28.138;-15.436;2023-07-13T11:36:30;3.03;;;1.47;;
64982;SDS011;69426;28.138;-15.436;2023-07-13T11:39:02;3.33;;;1.65;;
64982;SDS011;69426;28.138;-15.436;2023-07-13T11:41:34;3.92;;;1.70;;
64982;SDS011;69426;28.138;-15.436;2023-07-13T11:47:00;4.72;;;1.60;;
64982;SDS011;69426;28.138;-15.436;2023-07-13T11:49:31;3.03;;;1.70;;
64982;SDS011;69426;28.138;-15.436;2023-07-13T11:51:57;2.60;;;1.50;;
64982;SDS011;69426;28.138;-15.436;2023-07-13T11:54:27;6.55;;;1.70;;
64982;SDS011;69426;28.138;-15.436;2023-07-13T11:56:54;3.75;;;1.70;;
64982;SDS011;69426;28.138;-15.436;2023-07-13T11:59:19;5.22;;;1.73;;
64982;SDS011;69426;28.138;-15.436;2023-07-13T12:01:47;2.72;;;1.60;;
64982;SDS011;69426;28.138;-15.436;2023-07-13T12:04:24;2.67;;;1.60;;
64982;SDS011;69426;28.138;-15.436;2023-07-13T12:07:23;5.20;;;1.85;;
64982;SDS011;69426;28.138;-15.436;2023-07-13T12:09:42;8.13;;;2.53;;
64982;SDS011;69426;28.138;-15.436;2023-07-13T12:12:11;6.85;;;2.10;;
64982;SDS011;69426;28.138;-15.436;2023-07-13T12:14:37;9.43;;;2.33;;
64982;SDS011;69426;28.138;-15.436;2023-07-13T12:17:04;10.57;;;2.10;;
64982;SDS011;69426;28.138;-15.436;2023-07-13T12:19:33;20.20;;;2.45;;
64982;SDS011;69426;28.138;-15.436;2023-07-13T12:21:58;10.37;;;2.00;;
64982;SDS011;69426;28.138;-15.436;2023-07-13T12:24:24;9.07;;;2.05;;
64982;SDS011;69426;28.138;-15.436;2023-07-13T12:26:51;11.70;;;2.08;;
64982;SDS011;69426;28.138;-15.436;2023-07-13T12:29:17;11.43;;;1.95;;
64982;SDS011;69426;28.138;-15.436;2023-07-13T12:31:46;3.95;;;1.90;;
64982;SDS011;69426;28.138;-15.436;2023-07-13T12:34:13;9.25;;;2.25;;
64982;SDS011;69426;28.138;-15.436;2023-07-13T12:36:46;5.20;;;1.83;;
64982;SDS011;69426;28.138;-15.436;2023-07-13T12:41:41;6.32;;;1.77;;
64982;SDS011;69426;28.138;-15.436;2023-07-13T12:44:11;4.03;;;1.70;;
64982;SDS011;69426;28.138;-15.436;2023-07-13T12:46:36;11.48;;;1.77;;
64982;SDS011;69426;28.138;-15.436;2023-07-13T12:49:05;10.23;;;1.90;;
64982;SDS011;69426;28.138;-15.436;2023-07-13T12:51:32;4.57;;;1.90;;
64982;SDS011;69426;28.138;-15.436;2023-07-13T12:53:58;4.68;;;1.98;;
64982;SDS011;69426;28.138;-15.436;2023-07-13T12:56:29;5.70;;;1.98;;
64982;SDS011;69426;28.138;-15.436;2023-07-13T12:58:58;6.55;;;1.90;;
64982;SDS011;69426;28.138;-15.436;2023-07-13T13:01:28;10.23;;;1.90;;
64982;SDS011;69426;28.138;-15.436;2023-07-13T13:03:53;10.73;;;1.70;;
64982;SDS011;69426;28.138;-15.436;2023-07-13T13:08:47;6.05;;;1.63;;
64982;SDS011;69426;28.138;-15.436;2023-07-13T13:11:14;5.43;;;1.75;;
64982;SDS011;69426;28.138;-15.436;2023-07-13T13:13:41;5.38;;;1.88;;
64982;SDS011;69426;28.138;-15.436;2023-07-13T13:16:12;5.37;;;1.70;;
64982;SDS011;69426;28.138;-15.436;2023-07-13T13:18:39;6.95;;;1.60;;
64982;SDS011;69426;28.138;-15.436;2023-07-13T13:21:04;6.50;;;1.63;;
64982;SDS011;69426;28.138;-15.436;2023-07-13T13:23:29;7.70;;;1.90;;
64982;SDS011;69426;28.138;-15.436;2023-07-13T13:25:55;10.20;;;1.87;;
64982;SDS011;69426;28.138;-15.436;2023-07-13T13:28:20;11.20;;;1.90;;
64982;SDS011;69426;28.138;-15.436;2023-07-13T13:30:48;7.45;;;1.70;;
64982;SDS011;69426;28.138;-15.436;2023-07-13T13:33:16;5.47;;;1.80;;
64982;SDS011;69426;28.138;-15.436;2023-07-13T13:35:42;4.80;;;1.60;;
64982;SDS011;69426;28.138;-15.436;2023-07-13T13:38:15;5.75;;;1.90;;
64982;SDS011;69426;28.138;-15.436;2023-07-13T13:40:41;7.45;;;2.28;;
64982;SDS011;69426;28.138;-15.436;2023-07-13T13:43:16;5.90;;;2.25;;
64982;SDS011;69426;28.138;-15.436;2023-07-13T13:45:42;3.97;;;2.28;;
64982;SDS011;69426;28.138;-15.436;2023-07-13T13:48:18;4.03;;;2.13;;
64982;SDS011;69426;28.138;-15.436;2023-07-13T13:50:44;4.25;;;2.10;;
64982;SDS011;69426;28.138;-15.436;2023-07-13T13:53:10;8.23;;;2.30;;
64982;SDS011;69426;28.138;-15.436;2023-07-13T13:55:35;4.45;;;1.83;;
64982;SDS011;69426;28.138;-15.436;2023-07-13T13:58:00;4.87;;;1.73;;
64982;SDS011;69426;28.138;-15.436;2023-07-13T14:00:25;8.83;;;1.90;;
64982;SDS011;69426;28.138;-15.436;2023-07-13T14:02:50;3.83;;;1.77;;
64982;SDS011;69426;28.138;-15.436;2023-07-13T14:05:18;3.75;;;1.60;;
64982;SDS011;69426;28.138;-15.436;2023-07-13T14:07:45;4.55;;;1.75;;
64982;SDS011;69426;28.138;-15.436;2023-07-13T14:10:11;5.68;;;1.65;;
64982;SDS011;69426;28.138;-15.436;2023-07-13T14:12:37;3.53;;;1.50;;
64982;SDS011;69426;28.138;-15.436;2023-07-13T14:15:02;3.80;;;1.63;;
64982;SDS011;69426;28.138;-15.436;2023-07-13T14:17:27;5.53;;;1.70;;
64982;SDS011;69426;28.138;-15.436;2023-07-13T14:19:53;5.88;;;1.38;;
64982;SDS011;69426;28.138;-15.436;2023-07-13T14:22:25;4.70;;;1.55;;
64982;SDS011;69426;28.138;-15.436;2023-07-13T14:24:53;6.47;;;1.73;;
64982;SDS011;69426;28.138;-15.436;2023-07-13T14:27:18;7.32;;;1.50;;
64982;SDS011;69426;28.138;-15.436;2023-07-13T14:29:44;3.73;;;1.50;;
64982;SDS011;69426;28.138;-15.436;2023-07-13T14:32:10;5.70;;;1.43;;
64982;SDS011;69426;28.138;-15.436;2023-07-13T14:34:35;5.65;;;1.70;;
64982;SDS011;69426;28.138;-15.436;2023-07-13T14:37:01;5.25;;;1.55;;
64982;SDS011;69426;28.138;-15.436;2023-07-13T14:39:32;4.05;;;1.40;;
64982;SDS011;69426;28.138;-15.436;2023-07-13T14:41:57;2.97;;;1.40;;
64982;SDS011;69426;28.138;-15.436;2023-07-13T14:44:29;7.18;;;1.40;;
64982;SDS011;69426;28.138;-15.436;2023-07-13T14:46:55;5.90;;;1.40;;
64982;SDS011;69426;28.138;-15.436;2023-07-13T14:51:55;5.90;;;1.40;;
64982;SDS011;69426;28.138;-15.436;2023-07-13T14:54:22;4.15;;;1.35;;
64982;SDS011;69426;28.138;-15.436;2023-07-13T14:56:47;2.57;;;1.23;;
64982;SDS011;69426;28.138;-15.436;2023-07-13T14:59:13;3.57;;;1.40;;